sensor_id;sensor_type;location;lat;lon;timestamp;P1;durP1;ratioP1;P2;durP2;ratioP2
3189;SDS011;1606;51.946;10.558;2023-03-01T00:01:00;17.30;;;10.67;;
3189;SDS011;1606;51.946;10.558;2023-03-01T00:03:28;21.20;;;11.90;;
3189;SDS011;1606;51.946;10.558;2023-03-01T00:05:57;18.00;;;10.90;;
3189;SDS011;1606;51.946;10.558;2023-03-01T00:08:25;19.43;;;10.63;;
3189;SDS011;1606;51.946;10.558;2023-03-01T00:10:59;19.90;;;11.00;;
3189;SDS011;1606;51.946;10.558;2023-03-01T00:13:29;21.57;;;12.03;;
3189;SDS011;1606;51.946;10.558;2023-03-01T00:15:56;18.40;;;11.43;;
3189;SDS011;1606;51.946;10.558;2023-03-01T00:18:24;20.67;;;11.93;;
3189;SDS011;1606;51.946;10.558;2023-03-01T00:20:52;21.00;;;11.60;;
3189;SDS011;1606;51.946;10.558;2023-03-01T00:23:23;16.70;;;9.67;;
3189;SDS011;1606;51.946;10.558;2023-03-01T00:25:51;21.73;;;10.30;;
3189;SDS011;1606;51.946;10.558;2023-03-01T00:28:19;22.03;;;11.30;;
3189;SDS011;1606;51.946;10.558;2023-03-01T00:30:47;16.33;;;10.60;;
3189;SDS011;1606;51.946;10.558;2023-03-01T00:33:15;15.33;;;9.10;;
3189;SDS011;1606;51.946;10.558;2023-03-01T00:35:43;19.13;;;10.90;;
3189;SDS011;1606;51.946;10.558;2023-03-01T00:38:11;17.87;;;10.43;;
3189;SDS011;1606;51.946;10.558;2023-03-01T00:40:40;19.50;;;11.23;;
3189;SDS011;1606;51.946;10.558;2023-03-01T00:43:08;21.80;;;10.70;;
3189;SDS011;1606;51.946;10.558;2023-03-01T00:45:36;16.80;;;11.13;;
3189;SDS011;1606;51.946;10.558;2023-03-01T00:48:04;18.43;;;10.30;;
3189;SDS011;1606;51.946;10.558;2023-03-01T00:50:32;16.30;;;9.47;;
3189;SDS011;1606;51.946;10.558;2023-03-01T00:53:00;14.33;;;9.20;;
3189;SDS011;1606;51.946;10.558;2023-03-01T00:55:28;17.80;;;9.20;;
3189;SDS011;1606;51.946;10.558;2023-03-01T00:57:57;17.67;;;10.13;;
3189;SDS011;1606;51.946;10.558;2023-03-01T01:00:25;16.83;;;9.40;;
3189;SDS011;1606;51.946;10.558;2023-03-01T01:02:53;20.43;;;11.20;;
3189;SDS011;1606;51.946;10.558;2023-03-01T01:05:21;16.47;;;8.80;;
3189;SDS011;1606;51.946;10.558;2023-03-01T01:07:49;15.33;;;9.67;;
3189;SDS011;1606;51.946;10.558;2023-03-01T01:10:17;14.83;;;8.37;;
3189;SDS011;1606;51.946;10.558;2023-03-01T01:12:45;17.80;;;8.50;;
3189;SDS011;1606;51.946;10.558;2023-03-01T01:15:14;17.67;;;8.77;;
3189;SDS011;1606;51.946;10.558;2023-03-01T01:17:42;17.80;;;9.57;;
3189;SDS011;1606;51.946;10.558;2023-03-01T01:20:11;16.20;;;10.63;;
3189;SDS011;1606;51.946;10.558;2023-03-01T01:22:39;15.10;;;9.10;;
3189;SDS011;1606;51.946;10.558;2023-03-01T01:25:07;17.17;;;9.83;;
3189;SDS011;1606;51.946;10.558;2023-03-01T01:27:35;16.83;;;8.90;;
3189;SDS011;1606;51.946;10.558;2023-03-01T01:30:03;13.97;;;7.83;;
3189;SDS011;1606;51.946;10.558;2023-03-01T01:32:33;15.57;;;8.13;;
3189;SDS011;1606;51.946;10.558;2023-03-01T01:35:01;16.73;;;9.10;;
3189;SDS011;1606;51.946;10.558;2023-03-01T01:37:29;15.90;;;8.90;;
3189;SDS011;1606;51.946;10.558;2023-03-01T01:39:58;17.30;;;9.90;;
3189;SDS011;1606;51.946;10.558;2023-03-01T01:42:26;15.17;;;9.47;;
3189;SDS011;1606;51.946;10.558;2023-03-01T01:47:54;17.40;;;9.07;;
3189;SDS011;1606;51.946;10.558;2023-03-01T01:50:24;14.50;;;8.13;;
3189;SDS011;1606;51.946;10.558;2023-03-01T01:52:53;15.57;;;9.17;;
3189;SDS011;1606;51.946;10.558;2023-03-01T01:55:22;14.50;;;8.50;;
3189;SDS011;1606;51.946;10.558;2023-03-01T01:57:54;15.77;;;9.23;;
3189;SDS011;1606;51.946;10.558;2023-03-01T02:00:26;18.58;;;9.35;;
3189;SDS011;1606;51.946;10.558;2023-03-01T02:02:57;13.83;;;9.03;;
3189;SDS011;1606;51.946;10.558;2023-03-01T02:05:29;16.63;;;9.37;;
3189;SDS011;1606;51.946;10.558;2023-03-01T02:08:03;15.10;;;8.17;;
3189;SDS011;1606;51.946;10.558;2023-03-01T02:10:32;14.90;;;7.83;;
3189;SDS011;1606;51.946;10.558;2023-03-01T02:13:02;12.10;;;7.13;;
3189;SDS011;1606;51.946;10.558;2023-03-01T02:15:31;15.83;;;8.70;;
3189;SDS011;1606;51.946;10.558;2023-03-01T02:18:01;15.13;;;8.40;;
3189;SDS011;1606;51.946;10.558;2023-03-01T02:20:32;15.83;;;8.43;;
3189;SDS011;1606;51.946;10.558;2023-03-01T02:23:04;17.00;;;9.40;;
3189;SDS011;1606;51.946;10.558;2023-03-01T02:25:35;14.60;;;8.10;;
3189;SDS011;1606;51.946;10.558;2023-03-01T02:30:49;15.00;;;7.83;;
3189;SDS011;1606;51.946;10.558;2023-03-01T02:33:50;13.20;;;7.40;;
3189;SDS011;1606;51.946;10.558;2023-03-01T02:36:19;13.57;;;8.20;;
3189;SDS011;1606;51.946;10.558;2023-03-01T02:38:48;14.80;;;8.23;;
3189;SDS011;1606;51.946;10.558;2023-03-01T02:41:19;15.80;;;8.43;;
3189;SDS011;1606;51.946;10.558;2023-03-01T02:43:49;13.50;;;7.37;;
3189;SDS011;1606;51.946;10.558;2023-03-01T02:46:18;13.23;;;7.67;;
3189;SDS011;1606;51.946;10.558;2023-03-01T02:48:49;14.87;;;7.43;;
3189;SDS011;1606;51.946;10.558;2023-03-01T02:51:31;13.00;;;6.53;;
3189;SDS011;1606;51.946;10.558;2023-03-01T02:54:13;15.57;;;8.60;;
3189;SDS011;1606;51.946;10.558;2023-03-01T02:56:47;13.10;;;8.10;;
3189;SDS011;1606;51.946;10.558;2023-03-01T02:59:18;17.30;;;9.40;;
3189;SDS011;1606;51.946;10.558;2023-03-01T03:01:48;13.23;;;7.20;;
3189;SDS011;1606;51.946;10.558;2023-03-01T03:04:17;15.60;;;6.90;;
3189;SDS011;1606;51.946;10.558;2023-03-01T03:06:47;14.60;;;7.60;;
3189;SDS011;1606;51.946;10.558;2023-03-01T03:09:16;18.37;;;7.93;;
3189;SDS011;1606;51.946;10.558;2023-03-01T03:11:45;14.20;;;7.03;;
3189;SDS011;1606;51.946;10.558;2023-03-01T03:14:13;13.60;;;7.57;;
3189;SDS011;1606;51.946;10.558;2023-03-01T03:16:44;12.23;;;7.00;;
3189;SDS011;1606;51.946;10.558;2023-03-01T03:19:13;17.00;;;7.87;;
3189;SDS011;1606;51.946;10.558;2023-03-01T03:21:42;15.87;;;7.83;;
3189;SDS011;1606;51.946;10.558;2023-03-01T03:24:10;12.37;;;6.83;;
3189;SDS011;1606;51.946;10.558;2023-03-01T03:26:38;12.07;;;7.03;;
3189;SDS011;1606;51.946;10.558;2023-03-01T03:29:06;12.20;;;7.10;;
3189;SDS011;1606;51.946;10.558;2023-03-01T03:31:33;12.20;;;6.87;;
3189;SDS011;1606;51.946;10.558;2023-03-01T03:34:03;12.70;;;7.23;;
3189;SDS011;1606;51.946;10.558;2023-03-01T03:36:31;12.07;;;7.10;;
3189;SDS011;1606;51.946;10.558;2023-03-01T03:38:59;13.97;;;7.67;;
3189;SDS011;1606;51.946;10.558;2023-03-01T03:41:27;14.10;;;7.90;;
3189;SDS011;1606;51.946;10.558;2023-03-01T03:43:54;13.73;;;7.03;;
3189;SDS011;1606;51.946;10.558;2023-03-01T03:46:22;12.23;;;6.70;;
3189;SDS011;1606;51.946;10.558;2023-03-01T03:48:50;14.60;;;7.50;;
3189;SDS011;1606;51.946;10.558;2023-03-01T03:51:19;15.90;;;7.10;;
3189;SDS011;1606;51.946;10.558;2023-03-01T03:53:48;12.17;;;6.70;;
3189;SDS011;1606;51.946;10.558;2023-03-01T03:56:16;14.10;;;6.93;;
3189;SDS011;1606;51.946;10.558;2023-03-01T03:58:44;12.67;;;7.10;;
3189;SDS011;1606;51.946;10.558;2023-03-01T04:01:12;12.60;;;8.00;;
3189;SDS011;1606;51.946;10.558;2023-03-01T04:03:39;13.17;;;6.40;;
3189;SDS011;1606;51.946;10.558;2023-03-01T04:06:07;18.07;;;7.17;;
3189;SDS011;1606;51.946;10.558;2023-03-01T04:08:36;14.13;;;7.67;;
3189;SDS011;1606;51.946;10.558;2023-03-01T04:11:04;12.63;;;6.60;;
3189;SDS011;1606;51.946;10.558;2023-03-01T04:13:46;10.83;;;5.93;;
3189;SDS011;1606;51.946;10.558;2023-03-01T04:16:14;13.07;;;6.80;;
3189;SDS011;1606;51.946;10.558;2023-03-01T04:18:43;13.60;;;6.80;;
3189;SDS011;1606;51.946;10.558;2023-03-01T04:21:11;11.80;;;6.80;;
3189;SDS011;1606;51.946;10.558;2023-03-01T04:23:41;12.03;;;6.70;;
3189;SDS011;1606;51.946;10.558;2023-03-01T04:26:09;14.93;;;6.57;;
3189;SDS011;1606;51.946;10.558;2023-03-01T04:28:37;13.97;;;7.40;;
3189;SDS011;1606;51.946;10.558;2023-03-01T04:31:10;14.60;;;7.20;;
3189;SDS011;1606;51.946;10.558;2023-03-01T04:33:44;15.90;;;6.20;;
3189;SDS011;1606;51.946;10.558;2023-03-01T04:36:15;12.90;;;6.70;;
3189;SDS011;1606;51.946;10.558;2023-03-01T04:38:45;14.20;;;6.70;;
3189;SDS011;1606;51.946;10.558;2023-03-01T04:41:14;12.07;;;6.20;;
3189;SDS011;1606;51.946;10.558;2023-03-01T04:43:43;12.50;;;6.50;;
3189;SDS011;1606;51.946;10.558;2023-03-01T04:46:12;13.03;;;6.40;;
3189;SDS011;1606;51.946;10.558;2023-03-01T04:48:42;11.53;;;6.20;;
3189;SDS011;1606;51.946;10.558;2023-03-01T04:51:11;13.80;;;7.20;;
3189;SDS011;1606;51.946;10.558;2023-03-01T04:53:40;16.17;;;7.90;;
3189;SDS011;1606;51.946;10.558;2023-03-01T04:56:10;13.60;;;6.70;;
3189;SDS011;1606;51.946;10.558;2023-03-01T04:58:42;9.60;;;6.23;;
3189;SDS011;1606;51.946;10.558;2023-03-01T05:01:10;12.90;;;6.10;;
3189;SDS011;1606;51.946;10.558;2023-03-01T05:03:42;8.67;;;5.30;;
3189;SDS011;1606;51.946;10.558;2023-03-01T05:06:10;12.10;;;5.70;;
3189;SDS011;1606;51.946;10.558;2023-03-01T05:08:39;13.90;;;7.10;;
3189;SDS011;1606;51.946;10.558;2023-03-01T05:11:07;12.60;;;6.90;;
3189;SDS011;1606;51.946;10.558;2023-03-01T05:13:37;14.73;;;7.57;;
3189;SDS011;1606;51.946;10.558;2023-03-01T05:16:06;13.63;;;7.20;;
3189;SDS011;1606;51.946;10.558;2023-03-01T05:18:38;12.23;;;7.00;;
3189;SDS011;1606;51.946;10.558;2023-03-01T05:21:07;12.13;;;6.70;;
3189;SDS011;1606;51.946;10.558;2023-03-01T05:23:37;13.90;;;7.87;;
3189;SDS011;1606;51.946;10.558;2023-03-01T05:26:05;12.70;;;6.43;;
3189;SDS011;1606;51.946;10.558;2023-03-01T05:28:52;13.10;;;6.07;;
3189;SDS011;1606;51.946;10.558;2023-03-01T05:31:24;13.40;;;6.72;;
3189;SDS011;1606;51.946;10.558;2023-03-01T05:33:52;16.70;;;6.80;;
3189;SDS011;1606;51.946;10.558;2023-03-01T05:36:20;12.23;;;7.47;;
3189;SDS011;1606;51.946;10.558;2023-03-01T05:38:48;11.17;;;6.30;;
3189;SDS011;1606;51.946;10.558;2023-03-01T05:41:15;11.83;;;6.63;;
3189;SDS011;1606;51.946;10.558;2023-03-01T05:43:44;17.20;;;6.73;;
3189;SDS011;1606;51.946;10.558;2023-03-01T05:46:13;13.30;;;6.77;;
3189;SDS011;1606;51.946;10.558;2023-03-01T05:48:41;13.17;;;7.20;;
3189;SDS011;1606;51.946;10.558;2023-03-01T05:51:09;15.50;;;7.10;;
3189;SDS011;1606;51.946;10.558;2023-03-01T05:53:38;12.70;;;6.80;;
3189;SDS011;1606;51.946;10.558;2023-03-01T05:56:06;12.93;;;6.03;;
3189;SDS011;1606;51.946;10.558;2023-03-01T05:58:34;12.00;;;6.73;;
3189;SDS011;1606;51.946;10.558;2023-03-01T06:01:04;13.60;;;6.67;;
3189;SDS011;1606;51.946;10.558;2023-03-01T06:03:33;13.90;;;7.73;;
3189;SDS011;1606;51.946;10.558;2023-03-01T06:06:01;11.47;;;6.00;;
3189;SDS011;1606;51.946;10.558;2023-03-01T06:08:29;12.00;;;6.93;;
3189;SDS011;1606;51.946;10.558;2023-03-01T06:10:56;13.23;;;5.60;;
3189;SDS011;1606;51.946;10.558;2023-03-01T06:13:24;11.80;;;6.07;;
3189;SDS011;1606;51.946;10.558;2023-03-01T06:15:52;12.80;;;7.17;;
3189;SDS011;1606;51.946;10.558;2023-03-01T06:18:20;14.33;;;6.97;;
3189;SDS011;1606;51.946;10.558;2023-03-01T06:20:53;12.60;;;6.47;;
3189;SDS011;1606;51.946;10.558;2023-03-01T06:23:21;10.37;;;5.90;;
3189;SDS011;1606;51.946;10.558;2023-03-01T06:25:51;10.03;;;6.00;;
3189;SDS011;1606;51.946;10.558;2023-03-01T06:28:19;12.07;;;6.30;;
3189;SDS011;1606;51.946;10.558;2023-03-01T06:30:47;15.23;;;7.40;;
3189;SDS011;1606;51.946;10.558;2023-03-01T06:33:15;15.00;;;6.87;;
3189;SDS011;1606;51.946;10.558;2023-03-01T06:35:44;12.30;;;6.77;;
3189;SDS011;1606;51.946;10.558;2023-03-01T06:38:13;15.03;;;7.23;;
3189;SDS011;1606;51.946;10.558;2023-03-01T06:40:43;14.07;;;8.30;;
3189;SDS011;1606;51.946;10.558;2023-03-01T06:43:11;14.50;;;6.60;;
3189;SDS011;1606;51.946;10.558;2023-03-01T06:45:39;11.80;;;6.60;;
3189;SDS011;1606;51.946;10.558;2023-03-01T06:48:07;13.57;;;6.80;;
3189;SDS011;1606;51.946;10.558;2023-03-01T06:50:38;10.03;;;5.90;;
3189;SDS011;1606;51.946;10.558;2023-03-01T06:53:06;12.87;;;7.03;;
3189;SDS011;1606;51.946;10.558;2023-03-01T06:55:35;17.37;;;9.30;;
3189;SDS011;1606;51.946;10.558;2023-03-01T06:58:03;13.93;;;6.30;;
3189;SDS011;1606;51.946;10.558;2023-03-01T07:00:31;11.17;;;5.47;;
3189;SDS011;1606;51.946;10.558;2023-03-01T07:03:00;11.60;;;5.67;;
3189;SDS011;1606;51.946;10.558;2023-03-01T07:05:29;18.23;;;7.33;;
3189;SDS011;1606;51.946;10.558;2023-03-01T07:07:57;11.00;;;6.70;;
3189;SDS011;1606;51.946;10.558;2023-03-01T07:10:25;13.37;;;6.27;;
3189;SDS011;1606;51.946;10.558;2023-03-01T07:12:55;11.93;;;6.73;;
3189;SDS011;1606;51.946;10.558;2023-03-01T07:15:23;12.83;;;7.17;;
3189;SDS011;1606;51.946;10.558;2023-03-01T07:17:52;16.03;;;7.50;;
3189;SDS011;1606;51.946;10.558;2023-03-01T07:20:20;20.43;;;7.40;;
3189;SDS011;1606;51.946;10.558;2023-03-01T07:22:50;11.50;;;6.53;;
3189;SDS011;1606;51.946;10.558;2023-03-01T07:25:18;16.07;;;8.70;;
3189;SDS011;1606;51.946;10.558;2023-03-01T07:27:48;14.23;;;7.80;;
3189;SDS011;1606;51.946;10.558;2023-03-01T07:30:19;13.37;;;7.60;;
3189;SDS011;1606;51.946;10.558;2023-03-01T07:32:47;12.87;;;6.23;;
3189;SDS011;1606;51.946;10.558;2023-03-01T07:35:15;14.40;;;6.93;;
3189;SDS011;1606;51.946;10.558;2023-03-01T07:37:44;14.33;;;6.50;;
3189;SDS011;1606;51.946;10.558;2023-03-01T07:40:12;14.37;;;7.00;;
3189;SDS011;1606;51.946;10.558;2023-03-01T07:42:40;14.13;;;6.80;;
3189;SDS011;1606;51.946;10.558;2023-03-01T07:45:08;16.40;;;8.37;;
3189;SDS011;1606;51.946;10.558;2023-03-01T07:47:38;19.10;;;7.00;;
3189;SDS011;1606;51.946;10.558;2023-03-01T07:50:06;16.93;;;7.30;;
3189;SDS011;1606;51.946;10.558;2023-03-01T07:52:34;14.43;;;6.70;;
3189;SDS011;1606;51.946;10.558;2023-03-01T07:55:02;11.20;;;6.53;;
3189;SDS011;1606;51.946;10.558;2023-03-01T07:57:30;14.80;;;8.03;;
3189;SDS011;1606;51.946;10.558;2023-03-01T07:59:58;13.97;;;6.70;;
3189;SDS011;1606;51.946;10.558;2023-03-01T08:02:26;14.60;;;7.57;;
3189;SDS011;1606;51.946;10.558;2023-03-01T08:04:55;15.10;;;7.23;;
3189;SDS011;1606;51.946;10.558;2023-03-01T08:07:22;15.70;;;7.83;;
3189;SDS011;1606;51.946;10.558;2023-03-01T08:09:50;15.00;;;8.33;;
3189;SDS011;1606;51.946;10.558;2023-03-01T08:12:18;15.87;;;8.73;;
3189;SDS011;1606;51.946;10.558;2023-03-01T08:14:46;18.80;;;9.07;;
3189;SDS011;1606;51.946;10.558;2023-03-01T08:17:13;15.50;;;9.77;;
3189;SDS011;1606;51.946;10.558;2023-03-01T08:19:42;23.33;;;9.80;;
3189;SDS011;1606;51.946;10.558;2023-03-01T08:22:12;21.60;;;10.00;;
3189;SDS011;1606;51.946;10.558;2023-03-01T08:24:39;20.00;;;11.80;;
3189;SDS011;1606;51.946;10.558;2023-03-01T08:27:07;22.20;;;12.17;;
3189;SDS011;1606;51.946;10.558;2023-03-01T08:29:36;22.70;;;12.17;;
3189;SDS011;1606;51.946;10.558;2023-03-01T08:32:04;21.13;;;12.00;;
3189;SDS011;1606;51.946;10.558;2023-03-01T08:34:32;27.00;;;14.60;;
3189;SDS011;1606;51.946;10.558;2023-03-01T08:37:01;20.07;;;11.40;;
3189;SDS011;1606;51.946;10.558;2023-03-01T08:39:31;24.67;;;11.80;;
3189;SDS011;1606;51.946;10.558;2023-03-01T08:41:58;22.80;;;12.07;;
3189;SDS011;1606;51.946;10.558;2023-03-01T08:44:26;24.63;;;13.13;;
3189;SDS011;1606;51.946;10.558;2023-03-01T08:46:54;23.30;;;12.17;;
3189;SDS011;1606;51.946;10.558;2023-03-01T08:49:22;18.77;;;10.20;;
3189;SDS011;1606;51.946;10.558;2023-03-01T08:51:50;19.93;;;10.73;;
3189;SDS011;1606;51.946;10.558;2023-03-01T08:54:19;16.50;;;9.53;;
3189;SDS011;1606;51.946;10.558;2023-03-01T08:56:49;15.40;;;9.40;;
3189;SDS011;1606;51.946;10.558;2023-03-01T08:59:17;18.17;;;8.77;;
3189;SDS011;1606;51.946;10.558;2023-03-01T09:01:45;17.73;;;9.53;;
3189;SDS011;1606;51.946;10.558;2023-03-01T09:04:14;15.53;;;9.30;;
3189;SDS011;1606;51.946;10.558;2023-03-01T09:06:42;15.10;;;9.40;;
3189;SDS011;1606;51.946;10.558;2023-03-01T09:09:12;18.33;;;9.63;;
3189;SDS011;1606;51.946;10.558;2023-03-01T09:11:42;14.87;;;9.10;;
3189;SDS011;1606;51.946;10.558;2023-03-01T09:14:13;14.80;;;8.13;;
3189;SDS011;1606;51.946;10.558;2023-03-01T09:16:41;16.37;;;9.30;;
3189;SDS011;1606;51.946;10.558;2023-03-01T09:19:10;21.27;;;11.00;;
3189;SDS011;1606;51.946;10.558;2023-03-01T09:21:38;18.60;;;9.70;;
3189;SDS011;1606;51.946;10.558;2023-03-01T09:24:07;16.93;;;10.20;;
3189;SDS011;1606;51.946;10.558;2023-03-01T09:26:40;17.27;;;9.33;;
3189;SDS011;1606;51.946;10.558;2023-03-01T09:29:07;16.90;;;9.80;;
3189;SDS011;1606;51.946;10.558;2023-03-01T09:31:37;17.70;;;9.53;;
3189;SDS011;1606;51.946;10.558;2023-03-01T09:34:05;20.40;;;9.57;;
3189;SDS011;1606;51.946;10.558;2023-03-01T09:36:34;15.30;;;8.60;;
3189;SDS011;1606;51.946;10.558;2023-03-01T09:39:02;15.00;;;8.13;;
3189;SDS011;1606;51.946;10.558;2023-03-01T09:41:42;14.03;;;7.60;;
3189;SDS011;1606;51.946;10.558;2023-03-01T09:44:18;17.37;;;7.30;;
3189;SDS011;1606;51.946;10.558;2023-03-01T09:46:55;22.73;;;7.07;;
3189;SDS011;1606;51.946;10.558;2023-03-01T09:49:24;20.37;;;7.80;;
3189;SDS011;1606;51.946;10.558;2023-03-01T09:51:55;12.43;;;6.37;;
3189;SDS011;1606;51.946;10.558;2023-03-01T09:54:26;13.33;;;6.70;;
3189;SDS011;1606;51.946;10.558;2023-03-01T09:57:05;11.60;;;6.00;;
3189;SDS011;1606;51.946;10.558;2023-03-01T09:59:43;12.37;;;6.80;;
3189;SDS011;1606;51.946;10.558;2023-03-01T10:02:29;13.20;;;6.73;;
3189;SDS011;1606;51.946;10.558;2023-03-01T10:05:09;12.20;;;7.73;;
3189;SDS011;1606;51.946;10.558;2023-03-01T10:07:47;12.50;;;7.13;;
3189;SDS011;1606;51.946;10.558;2023-03-01T10:10:26;11.10;;;6.60;;
3189;SDS011;1606;51.946;10.558;2023-03-01T10:12:56;11.97;;;7.17;;
3189;SDS011;1606;51.946;10.558;2023-03-01T10:15:30;12.50;;;6.60;;
3189;SDS011;1606;51.946;10.558;2023-03-01T10:18:04;11.47;;;6.30;;
3189;SDS011;1606;51.946;10.558;2023-03-01T10:20:43;18.53;;;7.73;;
3189;SDS011;1606;51.946;10.558;2023-03-01T10:23:13;13.07;;;8.07;;
3189;SDS011;1606;51.946;10.558;2023-03-01T10:25:47;13.60;;;6.57;;
3189;SDS011;1606;51.946;10.558;2023-03-01T10:28:22;14.20;;;6.83;;
3189;SDS011;1606;51.946;10.558;2023-03-01T10:30:54;12.10;;;6.67;;
3189;SDS011;1606;51.946;10.558;2023-03-01T10:33:25;15.10;;;7.27;;
3189;SDS011;1606;51.946;10.558;2023-03-01T10:35:56;16.10;;;8.30;;
3189;SDS011;1606;51.946;10.558;2023-03-01T10:38:24;14.20;;;6.50;;
3189;SDS011;1606;51.946;10.558;2023-03-01T10:40:53;11.47;;;5.87;;
3189;SDS011;1606;51.946;10.558;2023-03-01T10:43:24;12.03;;;5.60;;
3189;SDS011;1606;51.946;10.558;2023-03-01T10:45:53;12.13;;;6.87;;
3189;SDS011;1606;51.946;10.558;2023-03-01T10:48:21;13.50;;;6.50;;
3189;SDS011;1606;51.946;10.558;2023-03-01T10:51:04;12.80;;;7.37;;
3189;SDS011;1606;51.946;10.558;2023-03-01T10:53:34;13.50;;;7.10;;
3189;SDS011;1606;51.946;10.558;2023-03-01T10:56:05;16.57;;;8.23;;
3189;SDS011;1606;51.946;10.558;2023-03-01T10:58:35;12.80;;;6.63;;
3189;SDS011;1606;51.946;10.558;2023-03-01T11:01:05;11.97;;;6.27;;
3189;SDS011;1606;51.946;10.558;2023-03-01T11:04:02;12.77;;;6.27;;
3189;SDS011;1606;51.946;10.558;2023-03-01T11:06:39;13.70;;;6.73;;
3189;SDS011;1606;51.946;10.558;2023-03-01T11:09:15;10.53;;;5.80;;
3189;SDS011;1606;51.946;10.558;2023-03-01T11:11:45;10.83;;;5.90;;
3189;SDS011;1606;51.946;10.558;2023-03-01T11:14:14;12.33;;;6.50;;
3189;SDS011;1606;51.946;10.558;2023-03-01T11:16:59;13.73;;;6.30;;
3189;SDS011;1606;51.946;10.558;2023-03-01T11:19:28;13.27;;;7.20;;
3189;SDS011;1606;51.946;10.558;2023-03-01T11:21:59;10.87;;;6.30;;
3189;SDS011;1606;51.946;10.558;2023-03-01T11:24:31;10.67;;;6.20;;
3189;SDS011;1606;51.946;10.558;2023-03-01T11:27:04;13.90;;;6.70;;
3189;SDS011;1606;51.946;10.558;2023-03-01T11:29:41;12.17;;;6.03;;
3189;SDS011;1606;51.946;10.558;2023-03-01T11:32:14;13.47;;;6.70;;
3189;SDS011;1606;51.946;10.558;2023-03-01T11:34:43;11.50;;;5.70;;
3189;SDS011;1606;51.946;10.558;2023-03-01T11:37:28;12.77;;;6.60;;
3189;SDS011;1606;51.946;10.558;2023-03-01T11:40:03;13.20;;;7.43;;
3189;SDS011;1606;51.946;10.558;2023-03-01T11:42:42;14.37;;;7.00;;
3189;SDS011;1606;51.946;10.558;2023-03-01T11:45:15;14.40;;;5.93;;
3189;SDS011;1606;51.946;10.558;2023-03-01T11:47:47;11.37;;;5.57;;
3189;SDS011;1606;51.946;10.558;2023-03-01T11:50:26;11.90;;;5.87;;
3189;SDS011;1606;51.946;10.558;2023-03-01T11:53:09;10.97;;;5.60;;
3189;SDS011;1606;51.946;10.558;2023-03-01T11:55:59;10.30;;;5.23;;
3189;SDS011;1606;51.946;10.558;2023-03-01T11:58:40;12.30;;;5.70;;
3189;SDS011;1606;51.946;10.558;2023-03-01T12:01:18;14.53;;;6.70;;
3189;SDS011;1606;51.946;10.558;2023-03-01T12:04:14;11.20;;;6.30;;
3189;SDS011;1606;51.946;10.558;2023-03-01T12:06:55;10.50;;;5.80;;
3189;SDS011;1606;51.946;10.558;2023-03-01T12:09:33;11.70;;;6.30;;
3189;SDS011;1606;51.946;10.558;2023-03-01T12:12:16;11.67;;;6.80;;
3189;SDS011;1606;51.946;10.558;2023-03-01T12:18:07;11.03;;;5.77;;
3189;SDS011;1606;51.946;10.558;2023-03-01T12:20:49;14.10;;;6.93;;
3189;SDS011;1606;51.946;10.558;2023-03-01T12:23:30;11.97;;;6.77;;
3189;SDS011;1606;51.946;10.558;2023-03-01T12:26:20;11.87;;;5.50;;
3189;SDS011;1606;51.946;10.558;2023-03-01T12:29:02;10.70;;;5.87;;
3189;SDS011;1606;51.946;10.558;2023-03-01T12:31:49;11.77;;;6.57;;
3189;SDS011;1606;51.946;10.558;2023-03-01T12:34:43;9.63;;;5.13;;
3189;SDS011;1606;51.946;10.558;2023-03-01T12:37:22;11.10;;;6.03;;
3189;SDS011;1606;51.946;10.558;2023-03-01T12:40:03;11.13;;;6.43;;
3189;SDS011;1606;51.946;10.558;2023-03-01T12:42:52;10.83;;;5.13;;
3189;SDS011;1606;51.946;10.558;2023-03-01T12:45:32;11.30;;;6.27;;
3189;SDS011;1606;51.946;10.558;2023-03-01T12:48:17;10.60;;;5.60;;
3189;SDS011;1606;51.946;10.558;2023-03-01T12:51:03;10.03;;;5.43;;
3189;SDS011;1606;51.946;10.558;2023-03-01T12:53:35;10.50;;;5.67;;
3189;SDS011;1606;51.946;10.558;2023-03-01T12:56:06;10.10;;;5.73;;
3189;SDS011;1606;51.946;10.558;2023-03-01T12:58:41;10.17;;;5.93;;
3189;SDS011;1606;51.946;10.558;2023-03-01T13:01:26;13.17;;;5.70;;
3189;SDS011;1606;51.946;10.558;2023-03-01T13:06:54;12.37;;;5.60;;
3189;SDS011;1606;51.946;10.558;2023-03-01T13:09:34;9.57;;;5.43;;
3189;SDS011;1606;51.946;10.558;2023-03-01T13:15:30;12.20;;;6.55;;
3189;SDS011;1606;51.946;10.558;2023-03-01T13:18:01;11.77;;;6.00;;
3189;SDS011;1606;51.946;10.558;2023-03-01T13:20:32;10.80;;;6.83;;
3189;SDS011;1606;51.946;10.558;2023-03-01T13:23:12;10.50;;;5.87;;
3189;SDS011;1606;51.946;10.558;2023-03-01T13:26:01;14.63;;;7.17;;
3189;SDS011;1606;51.946;10.558;2023-03-01T13:28:39;10.47;;;6.00;;
3189;SDS011;1606;51.946;10.558;2023-03-01T13:34:42;14.00;;;7.10;;
3189;SDS011;1606;51.946;10.558;2023-03-01T13:40:02;10.90;;;6.53;;
3189;SDS011;1606;51.946;10.558;2023-03-01T13:42:45;12.80;;;6.90;;
3189;SDS011;1606;51.946;10.558;2023-03-01T13:45:33;12.20;;;6.30;;
3189;SDS011;1606;51.946;10.558;2023-03-01T13:48:08;10.93;;;5.93;;
3189;SDS011;1606;51.946;10.558;2023-03-01T13:50:45;11.13;;;6.13;;
3189;SDS011;1606;51.946;10.558;2023-03-01T13:53:17;10.43;;;5.63;;
3189;SDS011;1606;51.946;10.558;2023-03-01T13:55:47;11.53;;;6.00;;
3189;SDS011;1606;51.946;10.558;2023-03-01T13:58:22;17.07;;;6.00;;
3189;SDS011;1606;51.946;10.558;2023-03-01T14:00:56;12.27;;;6.30;;
3189;SDS011;1606;51.946;10.558;2023-03-01T14:03:26;11.97;;;6.13;;
3189;SDS011;1606;51.946;10.558;2023-03-01T14:06:00;10.10;;;5.77;;
3189;SDS011;1606;51.946;10.558;2023-03-01T14:08:43;12.70;;;6.37;;
3189;SDS011;1606;51.946;10.558;2023-03-01T14:14:26;10.93;;;5.83;;
3189;SDS011;1606;51.946;10.558;2023-03-01T14:17:21;11.93;;;6.57;;
3189;SDS011;1606;51.946;10.558;2023-03-01T14:20:02;11.20;;;5.80;;
3189;SDS011;1606;51.946;10.558;2023-03-01T14:22:37;13.33;;;6.50;;
3189;SDS011;1606;51.946;10.558;2023-03-01T14:25:22;11.20;;;6.03;;
3189;SDS011;1606;51.946;10.558;2023-03-01T14:27:58;13.37;;;6.30;;
3189;SDS011;1606;51.946;10.558;2023-03-01T14:30:31;10.10;;;5.90;;
3189;SDS011;1606;51.946;10.558;2023-03-01T14:33:04;10.33;;;5.33;;
3189;SDS011;1606;51.946;10.558;2023-03-01T14:35:34;12.70;;;6.27;;
3189;SDS011;1606;51.946;10.558;2023-03-01T14:38:04;12.97;;;6.43;;
3189;SDS011;1606;51.946;10.558;2023-03-01T14:40:33;9.40;;;5.37;;
3189;SDS011;1606;51.946;10.558;2023-03-01T14:43:08;10.23;;;5.93;;
3189;SDS011;1606;51.946;10.558;2023-03-01T14:45:38;12.30;;;6.10;;
3189;SDS011;1606;51.946;10.558;2023-03-01T14:48:06;14.60;;;6.20;;
3189;SDS011;1606;51.946;10.558;2023-03-01T14:50:35;9.50;;;6.23;;
3189;SDS011;1606;51.946;10.558;2023-03-01T14:53:14;11.70;;;5.77;;
3189;SDS011;1606;51.946;10.558;2023-03-01T14:55:46;11.00;;;5.23;;
3189;SDS011;1606;51.946;10.558;2023-03-01T14:58:18;12.10;;;5.63;;
3189;SDS011;1606;51.946;10.558;2023-03-01T15:00:48;12.63;;;6.43;;
3189;SDS011;1606;51.946;10.558;2023-03-01T15:03:20;14.85;;;6.07;;
3189;SDS011;1606;51.946;10.558;2023-03-01T15:05:52;12.93;;;5.10;;
3189;SDS011;1606;51.946;10.558;2023-03-01T15:08:23;11.23;;;5.17;;
3189;SDS011;1606;51.946;10.558;2023-03-01T15:10:56;10.63;;;5.90;;
3189;SDS011;1606;51.946;10.558;2023-03-01T15:13:30;10.07;;;5.50;;
3189;SDS011;1606;51.946;10.558;2023-03-01T15:18:47;11.17;;;5.80;;
3189;SDS011;1606;51.946;10.558;2023-03-01T15:21:17;12.00;;;6.03;;
3189;SDS011;1606;51.946;10.558;2023-03-01T15:23:50;11.10;;;6.50;;
3189;SDS011;1606;51.946;10.558;2023-03-01T15:26:27;10.73;;;6.03;;
3189;SDS011;1606;51.946;10.558;2023-03-01T15:28:58;12.53;;;6.30;;
3189;SDS011;1606;51.946;10.558;2023-03-01T15:31:28;9.63;;;5.70;;
3189;SDS011;1606;51.946;10.558;2023-03-01T15:34:08;13.83;;;6.33;;
3189;SDS011;1606;51.946;10.558;2023-03-01T15:36:39;11.30;;;6.50;;
3189;SDS011;1606;51.946;10.558;2023-03-01T15:42:05;11.70;;;6.27;;